Time;durP1;ratioP1;P1;durP2;ratioP2;P2;SDS_P1;SDS_P2;PMS_P1;PMS_P2;Temp;Humidity;BMP_temperature;BMP_pressure;BME280_temperature;BME280_humidity;BME280_pressure;Samples;Min_cycle;Max_cycle;Signal;HPM_P1;HPM_P2
2023/09/21 00:02:58;;;;;;;5.40;3.20;;;24.90;59.70;;;;;;229240;1257;22220;-57
2023/09/21 00:08:01;;;;;;;5.90;3.50;;;24.90;59.80;;;;;;229218;1256;22368;-58
2023/09/21 00:13:04;;;;;;;7.00;3.20;;;24.80;60.00;;;;;;228967;1256;238582;-56
2023/09/21 00:18:07;;;;;;;3.30;3.00;;;24.80;60.00;;;;;;229148;1249;22292;-56
2023/09/21 00:23:10;;;;;;;3.10;2.80;;;24.90;59.80;;;;;;229273;1252;22234;-56
2023/09/21 00:28:14;;;;;;;3.30;3.00;;;25.00;59.60;;;;;;229203;1249;22370;-57
2023/09/21 00:33:17;;;;;;;3.50;2.80;;;25.10;59.50;;;;;;229199;1256;23171;-56
2023/09/21 00:38:21;;;;;;;4.20;3.60;;;25.10;59.50;;;;;;229234;1249;24018;-55
2023/09/21 00:43:25;;;;;;;3.40;3.00;;;25.10;59.50;;;;;;229166;1257;23134;-56
2023/09/21 00:48:33;;;;;;;3.10;2.80;;;25.00;59.60;;;;;;229294;1249;22288;-57
2023/09/21 00:53:39;;;;;;;3.20;2.90;;;24.90;59.70;;;;;;229161;1255;22724;-57
2023/09/21 00:58:47;;;;;;;3.50;3.20;;;25.00;59.60;;;;;;229178;1248;23162;-57
2023/09/21 01:03:53;;;;;;;3.50;3.20;;;25.00;59.50;;;;;;229290;1257;22321;-57
2023/09/21 01:08:57;;;;;;;3.20;2.70;;;25.00;59.50;;;;;;229252;1256;22337;-58
2023/09/21 01:14:00;;;;;;;3.00;2.60;;;25.00;59.60;;;;;;229224;1256;23107;-57
2023/09/21 01:19:03;;;;;;;2.60;2.40;;;25.10;59.20;;;;;;229255;1257;23047;-58
2023/09/21 01:24:11;;;;;;;3.10;2.80;;;24.90;59.60;;;;;;229173;1252;22302;-56
2023/09/21 01:29:14;;;;;;;2.80;2.60;;;24.90;59.50;;;;;;229208;1249;22288;-57
2023/09/21 01:34:16;;;;;;;2.60;2.40;;;24.80;59.80;;;;;;229130;1257;22267;-54
2023/09/21 01:39:19;;;;;;;3.00;2.70;;;24.80;60.10;;;;;;229273;1248;22290;-57
2023/09/21 01:44:22;;;;;;;2.30;2.10;;;24.70;60.00;;;;;;229201;1249;23158;-56
2023/09/21 01:49:24;;;;;;;3.60;2.60;;;24.70;60.20;;;;;;229222;1253;22397;-55
2023/09/21 01:54:27;;;;;;;3.00;2.70;;;24.80;60.20;;;;;;229255;1248;22285;-56
2023/09/21 01:59:31;;;;;;;3.40;2.60;;;24.70;60.20;;;;;;229278;1255;23228;-55
2023/09/21 02:04:34;;;;;;;2.50;2.30;;;24.70;60.20;;;;;;229188;1256;22299;-56
2023/09/21 02:09:37;;;;;;;3.00;2.30;;;24.80;60.10;;;;;;229225;1248;22319;-57
2023/09/21 02:14:40;;;;;;;2.70;2.50;;;24.70;60.20;;;;;;229199;1256;24090;-56
2023/09/21 02:19:43;;;;;;;3.00;2.30;;;24.70;60.20;;;;;;229211;1250;22361;-56
2023/09/21 02:24:46;;;;;;;2.30;2.20;;;24.70;60.30;;;;;;229194;1252;23997;-57
2023/09/21 02:29:49;;;;;;;2.30;2.10;;;24.70;60.20;;;;;;229132;1248;22309;-56
2023/09/21 02:34:52;;;;;;;2.20;2.00;;;24.70;60.30;;;;;;229215;1252;22275;-55
2023/09/21 02:39:55;;;;;;;2.50;2.30;;;24.70;60.70;;;;;;229201;1256;22526;-56
2023/09/21 02:44:58;;;;;;;3.40;2.10;;;24.70;60.30;;;;;;229266;1249;22391;-56
2023/09/21 02:50:09;;;;;;;2.60;2.30;;;24.70;60.40;;;;;;229163;1248;24087;-57
2023/09/21 02:55:16;;;;;;;2.50;2.30;;;24.70;60.30;;;;;;229164;1256;22251;-56
2023/09/21 03:00:35;;;;;;;2.40;1.90;;;24.70;60.20;;;;;;229233;1252;22271;-56
2023/09/21 03:05:39;;;;;;;2.00;1.90;;;24.70;60.30;;;;;;229155;1256;22269;-56
2023/09/21 03:10:50;;;;;;;2.30;2.10;;;24.70;60.30;;;;;;229222;1249;23077;-56
2023/09/21 03:15:58;;;;;;;1.80;1.70;;;24.70;60.20;;;;;;229189;1256;22344;-57
2023/09/21 03:21:09;;;;;;;2.40;2.20;;;24.70;60.10;;;;;;229302;1256;22781;-57
2023/09/21 03:26:18;;;;;;;1.80;1.70;;;24.70;60.10;;;;;;229155;1257;22302;-56
2023/09/21 03:31:22;;;;;;;2.30;2.10;;;24.70;60.30;;;;;;229204;1255;23335;-56
2023/09/21 03:36:24;;;;;;;4.40;2.00;;;24.60;60.40;;;;;;229224;1249;23203;-55
2023/09/21 03:41:27;;;;;;;2.10;1.90;;;24.70;60.20;;;;;;229191;1252;23991;-56
2023/09/21 03:46:31;;;;;;;2.80;2.00;;;24.60;60.30;;;;;;229146;1248;22360;-56
2023/09/21 03:51:35;;;;;;;2.60;1.70;;;24.60;60.20;;;;;;229157;1257;23083;-57
2023/09/21 03:56:39;;;;;;;2.20;2.10;;;24.60;60.40;;;;;;229131;1255;22305;-56
2023/09/21 04:01:42;;;;;;;2.40;1.90;;;24.60;60.30;;;;;;229204;1256;22304;-56
2023/09/21 04:06:45;;;;;;;1.90;1.80;;;24.60;60.40;;;;;;229240;1253;22374;-56
2023/09/21 04:11:48;;;;;;;2.90;1.90;;;24.60;60.30;;;;;;229160;1253;23355;-55
2023/09/21 04:16:51;;;;;;;2.40;2.20;;;24.60;60.30;;;;;;229140;1259;23191;-57
2023/09/21 04:21:53;;;;;;;2.20;2.00;;;24.60;60.30;;;;;;229190;1264;22644;-56
2023/09/21 04:26:56;;;;;;;3.20;2.10;;;24.60;60.30;;;;;;229270;1264;22359;-56
2023/09/21 04:31:59;;;;;;;2.00;1.90;;;24.60;60.30;;;;;;229228;1264;22296;-56
2023/09/21 04:37:02;;;;;;;2.00;1.90;;;24.60;60.50;;;;;;229163;1253;22968;-57
2023/09/21 04:42:05;;;;;;;1.90;1.70;;;24.50;60.40;;;;;;229180;1264;23209;-56
2023/09/21 04:47:08;;;;;;;1.70;1.60;;;24.50;60.40;;;;;;229223;1265;22281;-57
2023/09/21 04:52:11;;;;;;;1.90;1.80;;;24.60;60.30;;;;;;229199;1251;22308;-56
2023/09/21 04:57:14;;;;;;;1.70;1.60;;;24.50;60.50;;;;;;229256;1264;22252;-56
2023/09/21 05:02:16;;;;;;;2.10;1.90;;;24.50;60.60;;;;;;229253;1253;23194;-56
2023/09/21 05:07:19;;;;;;;2.00;1.90;;;24.50;60.50;;;;;;229165;1264;22342;-57
2023/09/21 05:12:22;;;;;;;2.10;1.90;;;24.60;60.40;;;;;;229198;1254;22360;-56
2023/09/21 05:17:25;;;;;;;1.60;1.50;;;24.60;60.40;;;;;;229190;1264;22274;-57
2023/09/21 05:22:28;;;;;;;2.00;1.90;;;24.50;60.40;;;;;;229210;1249;22366;-56
2023/09/21 05:27:31;;;;;;;1.70;1.60;;;24.50;60.70;;;;;;229186;1264;22281;-56
2023/09/21 05:32:34;;;;;;;3.90;1.80;;;24.50;60.70;;;;;;229224;1251;22264;-55
2023/09/21 05:37:41;;;;;;;2.80;2.50;;;24.50;60.50;;;;;;229229;1264;22335;-55
2023/09/21 05:42:45;;;;;;;4.10;1.90;;;24.50;60.00;;;;;;229164;1264;22292;-55
2023/09/21 05:47:47;;;;;;;3.00;2.00;;;24.50;60.60;;;;;;229203;1250;24130;-55
2023/09/21 05:52:53;;;;;;;3.80;2.10;;;24.50;60.30;;;;;;229208;1264;22354;-56
2023/09/21 05:57:56;;;;;;;3.50;2.20;;;24.60;61.00;;;;;;228551;1265;22648;-55
2023/09/21 06:03:02;;;;;;;1.90;1.70;;;24.70;60.70;;;;;;224080;1265;22545;-56
2023/09/21 06:08:05;;;;;;;4.90;2.00;;;24.80;60.40;;;;;;229119;1264;22384;-55
2023/09/21 06:13:07;;;;;;;3.40;2.10;;;24.90;60.90;;;;;;229079;1262;23251;-55
2023/09/21 06:18:10;;;;;;;3.80;1.90;;;25.00;60.60;;;;;;229172;1249;22293;-57
2023/09/21 06:23:17;;;;;;;3.20;1.90;;;25.00;60.90;;;;;;229097;1264;22260;-55
2023/09/21 06:28:21;;;;;;;3.70;1.90;;;25.10;60.90;;;;;;229164;1253;22295;-54
2023/09/21 06:33:24;;;;;;;5.40;2.00;;;25.00;61.10;;;;;;229130;1262;23040;-56
2023/09/21 06:38:27;;;;;;;3.60;2.10;;;25.00;61.00;;;;;;229143;1249;22627;-55
2023/09/21 06:43:30;;;;;;;3.70;2.10;;;24.70;62.00;;;;;;229134;1264;22459;-56
2023/09/21 06:48:33;;;;;;;2.50;2.00;;;24.80;61.90;;;;;;229165;1264;22294;-56
2023/09/21 06:53:36;;;;;;;5.70;2.50;;;24.80;61.90;;;;;;229127;1265;23004;-56
2023/09/21 06:58:39;;;;;;;3.90;1.80;;;24.90;61.80;;;;;;229138;1254;22272;-55
2023/09/21 07:03:42;;;;;;;6.00;2.30;;;24.90;61.40;;;;;;229038;1264;22351;-54
2023/09/21 07:08:47;;;;;;;4.50;2.10;;;25.00;61.60;;;;;;229091;1255;23923;-54
2023/09/21 07:13:51;;;;;;;2.60;2.00;;;25.20;61.00;;;;;;229084;1253;22369;-54
2023/09/21 07:18:54;;;;;;;2.10;1.80;;;25.10;60.80;;;;;;229146;1264;22262;-55
2023/09/21 07:23:57;;;;;;;4.90;2.00;;;25.10;60.80;;;;;;229122;1258;22266;-54
2023/09/21 07:29:06;;;;;;;3.00;2.30;;;25.10;60.80;;;;;;229183;1265;22301;-54
2023/09/21 07:34:09;;;;;;;4.30;1.60;;;25.00;60.90;;;;;;229133;1253;22411;-53
2023/09/21 07:39:13;;;;;;;2.90;2.00;;;25.00;60.90;;;;;;229130;1264;22279;-57
2023/09/21 07:44:16;;;;;;;2.60;2.20;;;25.10;60.80;;;;;;229139;1254;22735;-55
2023/09/21 07:49:19;;;;;;;4.40;2.40;;;25.20;60.20;;;;;;229118;1257;23132;-53
2023/09/21 07:54:24;;;;;;;3.40;1.90;;;25.10;60.30;;;;;;229218;1252;22358;-54
2023/09/21 07:59:26;;;;;;;1.90;1.70;;;25.20;60.30;;;;;;229142;1264;22275;-53
2023/09/21 08:04:29;;;;;;;2.80;2.20;;;25.20;60.10;;;;;;229208;1264;22262;-54
2023/09/21 08:09:32;;;;;;;2.60;1.70;;;25.20;60.70;;;;;;229187;1254;23833;-53
2023/09/21 08:14:35;;;;;;;2.70;1.90;;;25.50;59.60;;;;;;229228;1264;22962;-54
2023/09/21 08:19:39;;;;;;;3.60;1.80;;;25.60;59.40;;;;;;229222;1264;22230;-54
2023/09/21 08:24:41;;;;;;;3.20;1.90;;;25.50;59.60;;;;;;229298;1253;23070;-54
2023/09/21 08:29:44;;;;;;;3.30;1.90;;;25.50;59.60;;;;;;229241;1251;22683;-54
2023/09/21 08:34:48;;;;;;;2.40;1.80;;;25.60;59.50;;;;;;229247;1253;23069;-54
2023/09/21 08:39:51;;;;;;;1.90;1.60;;;25.50;59.30;;;;;;229206;1254;22305;-53
2023/09/21 08:44:54;;;;;;;2.20;1.80;;;25.50;59.50;;;;;;229213;1257;22319;-54
2023/09/21 08:49:58;;;;;;;2.30;2.10;;;25.60;59.30;;;;;;229212;1264;23390;-54
2023/09/21 08:55:01;;;;;;;2.50;1.90;;;25.70;59.10;;;;;;229220;1258;22211;-53
2023/09/21 09:00:10;;;;;;;3.10;1.90;;;25.70;59.00;;;;;;229197;1255;22316;-55
2023/09/21 09:05:14;;;;;;;6.10;1.70;;;25.70;59.00;;;;;;229191;1249;22274;-55
2023/09/21 09:10:18;;;;;;;5.30;1.90;;;25.70;59.00;;;;;;229166;1261;22287;-56
2023/09/21 09:15:34;;;;;;;1.80;1.60;;;25.70;58.90;;;;;;229173;1258;22309;-54
2023/09/21 09:20:37;;;;;;;2.80;1.90;;;25.80;59.10;;;;;;229201;1249;22270;-53
2023/09/21 09:25:40;;;;;;;2.20;1.90;;;25.90;58.80;;;;;;229198;1251;23491;-54
2023/09/21 09:30:45;;;;;;;2.70;1.80;;;25.90;59.00;;;;;;229213;1251;22377;-57
2023/09/21 09:35:48;;;;;;;3.20;1.90;;;25.90;58.90;;;;;;229303;1251;22350;-56
2023/09/21 09:40:52;;;;;;;2.40;1.60;;;26.00;58.80;;;;;;229231;1249;22733;-56
2023/09/21 09:45:55;;;;;;;2.70;1.80;;;26.00;58.70;;;;;;229325;1253;22277;-55
2023/09/21 09:51:05;;;;;;;2.20;2.00;;;26.10;58.60;;;;;;229283;1253;22423;-55
2023/09/21 09:56:09;;;;;;;3.10;1.90;;;26.20;58.40;;;;;;229229;1265;23039;-57
2023/09/21 10:01:14;;;;;;;2.00;1.80;;;26.30;58.30;;;;;;229260;1253;22284;-56
2023/09/21 10:06:17;;;;;;;3.20;1.80;;;26.30;58.30;;;;;;229221;1257;22424;-55
2023/09/21 10:11:21;;;;;;;2.00;1.90;;;26.20;58.50;;;;;;229208;1265;22330;-56
2023/09/21 10:16:26;;;;;;;3.00;1.80;;;26.40;58.20;;;;;;229166;1265;22313;-55
2023/09/21 10:21:38;;;;;;;4.00;2.00;;;26.50;58.30;;;;;;229175;1253;22262;-56
2023/09/21 10:26:49;;;;;;;1.50;1.40;;;26.50;58.40;;;;;;229259;1264;22305;-55
2023/09/21 10:31:54;;;;;;;2.20;2.10;;;26.50;58.10;;;;;;229205;1264;22282;-55
2023/09/21 10:37:10;;;;;;;2.70;1.80;;;26.50;58.10;;;;;;229213;1251;22450;-58
2023/09/21 10:42:15;;;;;;;9.60;3.00;;;26.70;57.50;;;;;;229257;1264;22954;-52
2023/09/21 10:47:25;;;;;;;3.50;3.20;;;26.60;57.20;;;;;;220982;1265;22609;-51
2023/09/21 10:52:28;;;;;;;5.30;2.70;;;26.50;58.20;;;;;;229232;1264;22257;-50
2023/09/21 10:57:31;;;;;;;9.10;3.00;;;26.30;58.40;;;;;;229246;1263;22754;-51
2023/09/21 11:02:40;;;;;;;4.80;2.90;;;26.40;57.90;;;;;;229246;1264;22291;-52
2023/09/21 11:07:45;;;;;;;5.90;3.10;;;26.60;57.80;;;;;;229188;1265;22959;-50
2023/09/21 11:12:48;;;;;;;6.70;2.80;;;26.60;57.50;;;;;;229249;1264;22261;-52
2023/09/21 11:17:52;;;;;;;8.20;3.60;;;26.60;57.50;;;;;;229308;1251;22393;-51
2023/09/21 11:22:55;;;;;;;3.60;2.60;;;26.40;57.50;;;;;;229327;1251;22405;-49
2023/09/21 11:27:58;;;;;;;3.70;2.80;;;26.60;57.50;;;;;;229314;1264;22325;-51
2023/09/21 11:33:00;;;;;;;5.50;2.90;;;26.70;57.10;;;;;;225117;1251;24987;-49
2023/09/21 11:38:04;;;;;;;4.90;2.90;;;26.50;57.00;;;;;;220704;1264;24233;-49
2023/09/21 11:43:13;;;;;;;4.80;2.80;;;26.30;57.30;;;;;;229264;1264;22291;-53
2023/09/21 11:48:15;;;;;;;10.30;3.30;;;26.40;57.00;;;;;;229287;1264;22319;-51
2023/09/21 11:53:19;;;;;;;7.50;3.30;;;26.40;56.70;;;;;;229281;1264;23067;-52
2023/09/21 11:58:22;;;;;;;8.50;3.10;;;26.50;56.20;;;;;;229277;1265;22273;-52
2023/09/21 12:03:25;;;;;;;8.40;2.70;;;26.70;56.20;;;;;;222412;1265;22540;-53
2023/09/21 12:08:29;;;;;;;4.40;3.00;;;26.70;55.50;;;;;;229238;1255;22427;-54
2023/09/21 12:13:32;;;;;;;7.90;3.00;;;26.90;55.50;;;;;;229023;1264;276638;-52
2023/09/21 12:18:34;;;;;;;5.80;3.40;;;27.00;55.10;;;;;;229223;1264;22252;-50
2023/09/21 12:23:38;;;;;;;4.20;2.50;;;27.00;54.80;;;;;;229241;1250;22270;-49
2023/09/21 12:28:42;;;;;;;9.70;3.40;;;26.70;54.70;;;;;;229231;1264;23043;-51
2023/09/21 12:33:45;;;;;;;6.70;2.60;;;26.70;54.80;;;;;;229245;1257;23051;-59
2023/09/21 12:38:50;;;;;;;10.40;3.00;;;26.90;54.60;;;;;;229262;1251;22279;-52
2023/09/21 12:43:53;;;;;;;8.30;2.80;;;27.00;54.30;;;;;;229205;1264;22274;-53
2023/09/21 12:48:56;;;;;;;9.20;3.10;;;27.00;53.60;;;;;;229261;1264;22278;-51
2023/09/21 12:54:00;;;;;;;8.40;3.10;;;26.90;53.10;;;;;;229190;1264;22402;-47
2023/09/21 12:59:04;;;;;;;4.80;2.80;;;26.90;52.80;;;;;;229318;1254;23002;-49
2023/09/21 13:04:07;;;;;;;4.40;2.70;;;26.90;53.30;;;;;;229256;1264;22519;-48
2023/09/21 13:09:10;;;;;;;6.50;2.40;;;27.10;52.50;;;;;;229229;1261;22222;-52
2023/09/21 13:14:13;;;;;;;8.40;2.70;;;27.10;52.60;;;;;;229237;1264;22258;-50
2023/09/21 13:19:16;;;;;;;5.40;2.20;;;27.10;52.90;;;;;;229169;1264;22291;-49
2023/09/21 13:24:19;;;;;;;5.60;2.60;;;27.00;52.50;;;;;;229345;1251;22386;-50
2023/09/21 13:29:22;;;;;;;4.50;2.30;;;27.10;52.70;;;;;;225513;1254;24263;-48
2023/09/21 13:34:25;;;;;;;5.30;2.40;;;27.00;52.70;;;;;;220611;1264;22556;-50
2023/09/21 13:39:28;;;;;;;4.40;2.30;;;26.70;53.20;;;;;;229188;1253;22293;-50
2023/09/21 13:44:32;;;;;;;5.50;2.40;;;26.60;53.50;;;;;;229219;1254;22407;-50
2023/09/21 13:49:35;;;;;;;10.20;2.30;;;26.70;53.10;;;;;;229217;1252;22256;-48
2023/09/21 13:54:37;;;;;;;7.00;2.20;;;26.70;53.10;;;;;;229251;1254;22734;-49
2023/09/21 13:59:40;;;;;;;4.50;1.90;;;26.70;53.00;;;;;;229168;1251;22336;-52
2023/09/21 14:04:43;;;;;;;6.80;2.40;;;26.60;53.10;;;;;;229202;1248;22267;-52
2023/09/21 14:09:46;;;;;;;5.50;2.30;;;26.70;53.20;;;;;;229156;1251;22988;-51
2023/09/21 14:14:51;;;;;;;6.50;2.30;;;26.50;53.20;;;;;;229219;1264;22293;-52
2023/09/21 14:19:54;;;;;;;5.90;2.30;;;26.50;53.00;;;;;;229205;1248;22266;-47
2023/09/21 14:24:56;;;;;;;8.00;2.50;;;26.50;53.40;;;;;;229194;1251;23248;-51
2023/09/21 14:29:59;;;;;;;7.40;2.80;;;26.50;53.60;;;;;;227913;1248;24209;-49
2023/09/21 14:35:03;;;;;;;6.00;2.30;;;26.40;54.20;;;;;;228954;1251;22451;-50
2023/09/21 14:40:06;;;;;;;3.60;2.00;;;26.40;53.90;;;;;;229096;1249;22282;-49
2023/09/21 14:45:09;;;;;;;7.90;2.40;;;26.50;54.10;;;;;;229077;1250;22365;-51
2023/09/21 14:50:12;;;;;;;6.50;2.50;;;26.50;54.00;;;;;;229107;1261;22284;-51
2023/09/21 14:55:15;;;;;;;4.70;2.30;;;26.50;54.30;;;;;;229099;1248;22280;-49
2023/09/21 15:00:21;;;;;;;6.00;2.60;;;26.50;54.30;;;;;;229204;1248;22323;-51
2023/09/21 15:05:25;;;;;;;9.40;2.90;;;26.50;54.50;;;;;;229146;1249;22289;-50
2023/09/21 15:10:28;;;;;;;4.30;2.10;;;26.50;54.70;;;;;;229109;1249;22281;-51
2023/09/21 15:15:34;;;;;;;6.70;2.40;;;26.50;54.60;;;;;;229081;1251;22312;-50
2023/09/21 15:20:37;;;;;;;13.70;3.00;;;26.60;55.10;;;;;;229208;1254;23264;-51
2023/09/21 15:25:40;;;;;;;15.40;3.30;;;26.40;56.20;;;;;;229170;1253;22279;-54
2023/09/21 15:30:43;;;;;;;6.20;2.40;;;26.40;57.30;;;;;;223083;1248;22532;-49
2023/09/21 15:35:46;;;;;;;6.00;2.70;;;26.50;58.30;;;;;;229187;1249;22339;-48
2023/09/21 15:40:50;;;;;;;8.50;2.70;;;26.40;58.20;;;;;;229187;1248;22361;-51
2023/09/21 15:45:53;;;;;;;14.00;3.20;;;26.40;58.80;;;;;;229157;1264;23171;-49
2023/09/21 15:50:56;;;;;;;6.30;2.60;;;26.40;58.60;;;;;;229267;1264;22355;-51
2023/09/21 15:56:00;;;;;;;7.10;2.60;;;26.50;58.10;;;;;;229211;1264;22881;-50
2023/09/21 16:01:03;;;;;;;7.40;3.10;;;26.50;57.60;;;;;;229087;1249;22324;-49
2023/09/21 16:06:06;;;;;;;7.80;4.10;;;26.40;57.50;;;;;;229192;1253;22283;-52
2023/09/21 16:11:09;;;;;;;8.10;3.40;;;26.30;57.30;;;;;;229223;1253;22874;-49
2023/09/21 16:16:16;;;;;;;6.90;3.50;;;26.40;56.50;;;;;;229192;1264;22293;-50
2023/09/21 16:21:20;;;;;;;7.30;3.20;;;26.30;56.10;;;;;;229130;1264;22698;-50
2023/09/21 16:26:24;;;;;;;9.90;2.90;;;26.30;56.10;;;;;;229137;1264;22375;-53
2023/09/21 16:31:27;;;;;;;8.20;3.30;;;26.20;55.90;;;;;;229174;1248;22272;-51
2023/09/21 16:36:30;;;;;;;7.80;3.20;;;26.20;55.40;;;;;;229165;1248;22272;-52
2023/09/21 16:41:33;;;;;;;9.80;3.00;;;26.00;55.80;;;;;;229143;1264;22279;-50
2023/09/21 16:46:36;;;;;;;6.30;2.80;;;26.20;55.30;;;;;;229093;1260;22307;-50
2023/09/21 16:51:44;;;;;;;4.20;3.20;;;26.10;55.50;;;;;;229112;1264;22306;-51
2023/09/21 16:56:49;;;;;;;7.50;3.30;;;26.10;55.40;;;;;;229191;1257;22321;-48
2023/09/21 17:01:56;;;;;;;5.90;2.70;;;26.00;56.00;;;;;;229074;1250;24115;-46
2023/09/21 17:06:59;;;;;;;10.20;2.70;;;25.90;55.80;;;;;;229130;1264;22285;-56
2023/09/21 17:12:04;;;;;;;4.60;2.80;;;25.90;55.80;;;;;;229086;1264;22991;-50
2023/09/21 17:17:07;;;;;;;13.60;3.20;;;25.90;56.10;;;;;;229233;1262;23050;-50
2023/09/21 17:22:12;;;;;;;6.50;3.20;;;25.80;57.20;;;;;;229237;1258;22264;-54
2023/09/21 17:27:17;;;;;;;7.70;2.90;;;25.90;56.70;;;;;;229210;1264;22292;-53
2023/09/21 17:32:22;;;;;;;6.70;3.10;;;26.20;56.20;;;;;;229146;1261;22452;-52
2023/09/21 17:37:26;;;;;;;7.70;3.60;;;26.10;56.50;;;;;;229125;1264;22267;-53
2023/09/21 17:42:35;;;;;;;8.30;4.40;;;26.00;56.50;;;;;;229087;1264;22254;-51
2023/09/21 17:47:41;;;;;;;7.80;3.80;;;26.00;56.50;;;;;;229105;1252;22381;-53
2023/09/21 17:52:47;;;;;;;17.30;3.80;;;26.10;56.70;;;;;;229195;1264;22314;-50
2023/09/21 17:57:52;;;;;;;10.30;3.20;;;26.00;56.70;;;;;;229145;1254;22477;-53
2023/09/21 18:02:56;;;;;;;12.90;5.80;;;25.90;56.70;;;;;;221617;1264;25461;-54
2023/09/21 18:08:03;;;;;;;8.30;3.20;;;25.60;57.10;;;;;;229187;1257;22818;-54
2023/09/21 18:13:08;;;;;;;10.90;3.60;;;25.40;57.20;;;;;;229010;1260;22967;-52
2023/09/21 18:18:16;;;;;;;9.20;3.40;;;25.40;57.10;;;;;;229142;1264;22953;-53
2023/09/21 18:23:21;;;;;;;6.60;2.80;;;25.40;57.20;;;;;;229178;1251;22451;-51
2023/09/21 18:28:27;;;;;;;11.10;3.70;;;25.40;57.20;;;;;;229166;1260;23093;-50
2023/09/21 18:33:33;;;;;;;13.90;3.20;;;25.40;57.30;;;;;;229193;1259;22328;-51
2023/09/21 18:38:38;;;;;;;9.70;2.90;;;25.30;57.30;;;;;;229176;1264;22434;-50
2023/09/21 18:43:44;;;;;;;5.30;2.80;;;25.30;57.40;;;;;;229142;1264;22447;-50
2023/09/21 18:48:49;;;;;;;5.00;2.90;;;25.40;57.20;;;;;;229097;1257;22265;-49
2023/09/21 18:53:56;;;;;;;7.20;2.70;;;25.40;57.30;;;;;;229143;1264;22269;-49
2023/09/21 18:59:01;;;;;;;7.10;3.40;;;25.40;57.20;;;;;;229123;1264;22304;-50
2023/09/21 19:04:06;;;;;;;10.20;3.40;;;25.20;57.30;;;;;;229174;1251;23089;-53
2023/09/21 19:09:15;;;;;;;9.80;3.10;;;25.30;57.50;;;;;;229198;1254;22296;-53
2023/09/21 19:14:22;;;;;;;7.00;2.80;;;25.30;57.40;;;;;;229194;1264;23034;-53
2023/09/21 19:19:26;;;;;;;7.00;3.30;;;25.10;57.30;;;;;;229183;1264;23017;-55
2023/09/21 19:24:31;;;;;;;8.00;3.50;;;25.10;57.20;;;;;;229202;1264;22297;-51
2023/09/21 19:29:35;;;;;;;5.50;3.00;;;25.10;57.40;;;;;;229276;1254;22272;-57
2023/09/21 19:34:40;;;;;;;11.00;3.60;;;25.00;57.30;;;;;;229113;1253;22792;-57
2023/09/21 19:39:46;;;;;;;14.70;3.60;;;25.40;57.40;;;;;;229139;1251;22488;-56
2023/09/21 19:44:52;;;;;;;7.70;4.20;;;25.50;57.20;;;;;;229144;1264;22746;-57
2023/09/21 19:50:00;;;;;;;7.80;3.50;;;25.50;56.90;;;;;;229091;1257;23019;-54
2023/09/21 19:55:05;;;;;;;11.90;3.80;;;25.40;56.80;;;;;;226922;1264;22516;-55
2023/09/21 20:00:11;;;;;;;6.40;3.30;;;25.40;57.10;;;;;;229209;1253;22244;-57
2023/09/21 20:05:15;;;;;;;6.30;3.00;;;25.50;57.10;;;;;;229166;1258;22353;-57
2023/09/21 20:10:22;;;;;;;3.70;3.20;;;25.40;56.60;;;;;;229228;1255;22273;-59
2023/09/21 20:15:27;;;;;;;7.90;3.80;;;25.40;57.00;;;;;;229206;1264;22359;-57
2023/09/21 20:20:37;;;;;;;7.60;3.80;;;25.50;57.50;;;;;;229165;1251;22984;-58
2023/09/21 20:25:41;;;;;;;6.60;3.50;;;25.60;57.00;;;;;;229179;1261;22314;-56
2023/09/21 20:30:47;;;;;;;7.40;3.90;;;25.70;56.90;;;;;;229219;1251;22706;-58
2023/09/21 20:35:50;;;;;;;8.20;4.10;;;25.40;57.10;;;;;;229166;1264;22296;-57
2023/09/21 20:40:54;;;;;;;7.30;3.40;;;25.30;57.20;;;;;;228956;1248;22350;-57
2023/09/21 20:45:58;;;;;;;5.70;3.60;;;25.30;57.10;;;;;;229156;1253;22320;-59
2023/09/21 20:51:04;;;;;;;11.40;3.90;;;25.40;57.10;;;;;;225685;1250;24234;-57
2023/09/21 20:56:07;;;;;;;4.80;3.20;;;25.70;57.00;;;;;;229117;1254;23273;-57
2023/09/21 21:01:10;;;;;;;7.40;3.60;;;25.70;57.50;;;;;;222411;1249;25390;-55
2023/09/21 21:06:14;;;;;;;7.20;4.00;;;25.60;57.30;;;;;;221335;1260;22521;-56
2023/09/21 21:11:20;;;;;;;5.10;3.30;;;25.40;57.70;;;;;;229087;1255;22296;-58
2023/09/21 21:16:22;;;;;;;5.70;3.50;;;25.50;57.30;;;;;;229122;1255;23601;-56
2023/09/21 21:21:25;;;;;;;5.80;3.50;;;25.50;57.10;;;;;;226307;1264;22612;-56
2023/09/21 21:26:29;;;;;;;7.10;3.20;;;25.50;57.80;;;;;;229242;1251;22386;-56
2023/09/21 21:31:33;;;;;;;6.00;3.60;;;25.50;57.50;;;;;;229100;1264;22985;-55
2023/09/21 21:36:38;;;;;;;12.00;4.00;;;25.40;58.80;;;;;;222764;1249;22710;-55
2023/09/21 21:41:41;;;;;;;11.70;4.40;;;25.50;60.00;;;;;;227057;1249;23081;-54
2023/09/21 21:46:44;;;;;;;7.40;4.30;;;25.50;60.90;;;;;;220620;1249;22752;-56
2023/09/21 21:51:48;;;;;;;8.40;3.80;;;25.50;60.60;;;;;;229192;1258;22246;-57
2023/09/21 21:56:50;;;;;;;6.50;3.80;;;25.60;60.20;;;;;;229244;1251;22285;-57
2023/09/21 22:01:53;;;;;;;6.00;4.40;;;25.60;60.00;;;;;;229251;1261;22256;-57
2023/09/21 22:06:56;;;;;;;4.70;3.70;;;25.80;59.30;;;;;;221051;1259;24459;-53
2023/09/21 22:11:59;;;;;;;7.00;4.00;;;25.70;59.40;;;;;;227745;1253;27075;-55
2023/09/21 22:17:03;;;;;;;6.20;3.60;;;25.70;59.50;;;;;;229161;1252;22301;-56
2023/09/21 22:22:06;;;;;;;9.90;4.00;;;25.60;59.30;;;;;;221923;1252;25238;-55
2023/09/21 22:27:09;;;;;;;6.50;3.90;;;25.60;59.10;;;;;;220565;1255;24221;-53
2023/09/21 22:32:12;;;;;;;6.70;3.90;;;25.40;59.20;;;;;;229197;1249;22293;-56
2023/09/21 22:37:14;;;;;;;6.00;4.10;;;25.30;59.20;;;;;;229259;1253;22270;-56
2023/09/21 22:42:17;;;;;;;4.60;4.10;;;25.30;58.80;;;;;;229186;1265;22346;-55
2023/09/21 22:47:20;;;;;;;6.50;4.00;;;25.40;58.70;;;;;;226804;1265;22542;-55
2023/09/21 22:52:22;;;;;;;7.60;4.50;;;25.40;58.90;;;;;;220832;1251;23902;-54
2023/09/21 22:57:28;;;;;;;9.30;4.20;;;25.30;58.80;;;;;;220435;1249;22634;-52
2023/09/21 23:02:31;;;;;;;6.10;3.80;;;25.20;59.10;;;;;;225845;1264;24237;-52
2023/09/21 23:07:34;;;;;;;4.40;4.00;;;25.20;59.10;;;;;;220383;1255;22715;-52
2023/09/21 23:12:45;;;;;;;5.90;4.10;;;25.20;59.00;;;;;;227597;1264;22539;-51
2023/09/21 23:17:48;;;;;;;7.00;4.20;;;25.20;59.00;;;;;;229201;1264;22274;-53
2023/09/21 23:22:51;;;;;;;5.00;4.00;;;25.30;58.90;;;;;;223516;1254;22519;-53
2023/09/21 23:27:54;;;;;;;4.40;3.40;;;25.30;58.70;;;;;;229163;1254;22313;-52
2023/09/21 23:32:57;;;;;;;5.70;3.90;;;25.30;58.80;;;;;;225853;1264;22557;-53
2023/09/21 23:38:00;;;;;;;8.30;3.90;;;25.30;58.70;;;;;;229252;1265;22353;-50
2023/09/21 23:43:03;;;;;;;6.00;4.40;;;25.30;58.70;;;;;;229006;1265;22628;-53
2023/09/21 23:48:07;;;;;;;8.60;4.50;;;25.20;58.60;;;;;;220583;1264;22514;-52
2023/09/21 23:53:15;;;;;;;6.30;3.90;;;25.20;58.80;;;;;;229197;1251;23259;-51
2023/09/21 23:58:17;;;;;;;6.80;4.00;;;25.10;58.90;;;;;;229126;1264;22252;-52
